You are not logged in, Click here to log in
ICAO: ZPPP Country: 中華人民共和國雲南省昆明市新啟用
Latitude: 25.0992 Longitude: 102.927
Total Arrivals: 16 Total Departures: 11
Latest Arrival: MU2032 (VYYY-ZPPP)CHU. CHUHAO Latest Departure: 8L9947 (ZPPP-ZUUU)CHU. CHUHAO
Scenery:
METAR : ZPPP 210700Z VRB01MPS 9999 BKN026 25/13 Q1019 NOSIG

昆明長水國際機場KMG